sensor_id;sensor_type;location;lat;lon;timestamp;pressure;altitude;pressure_sealevel;temperature;humidity
64211;BME280;50528;48.514;14.394;2022-12-24T00:00:20;93126.45;;;8.75;93.06
64211;BME280;50528;48.514;14.394;2022-12-24T00:01:14;93121.48;;;8.68;92.84
64211;BME280;50528;48.514;14.394;2022-12-24T00:01:47;93121.98;;;8.66;93.10
64211;BME280;50528;48.514;14.394;2022-12-24T00:02:21;93119.89;;;8.64;93.13
64211;BME280;50528;48.514;14.394;2022-12-24T00:02:55;93122.36;;;8.68;93.03
64211;BME280;50528;48.514;14.394;2022-12-24T00:03:28;93124.20;;;8.68;93.22
64211;BME280;50528;48.514;14.394;2022-12-24T00:04:02;93122.56;;;8.65;93.31
64211;BME280;50528;48.514;14.394;2022-12-24T00:04:37;93128.34;;;8.69;93.33
64211;BME280;50528;48.514;14.394;2022-12-24T00:05:11;93123.23;;;8.78;92.98
64211;BME280;50528;48.514;14.394;2022-12-24T00:05:45;93121.98;;;8.82;92.72
64211;BME280;50528;48.514;14.394;2022-12-24T00:06:21;93119.52;;;8.73;92.78
64211;BME280;50528;48.514;14.394;2022-12-24T00:06:55;93117.61;;;8.70;93.11
64211;BME280;50528;48.514;14.394;2022-12-24T00:07:29;93118.81;;;8.69;93.16
64211;BME280;50528;48.514;14.394;2022-12-24T00:08:02;93116.41;;;8.70;93.29
64211;BME280;50528;48.514;14.394;2022-12-24T00:08:35;93119.15;;;8.72;93.36
64211;BME280;50528;48.514;14.394;2022-12-24T00:09:09;93115.66;;;8.69;93.31
64211;BME280;50528;48.514;14.394;2022-12-24T00:09:42;93120.21;;;8.68;93.37
64211;BME280;50528;48.514;14.394;2022-12-24T00:10:16;93119.67;;;8.71;93.44
64211;BME280;50528;48.514;14.394;2022-12-24T00:10:52;93123.61;;;8.75;93.23
64211;BME280;50528;48.514;14.394;2022-12-24T00:11:26;93123.94;;;8.69;93.02
64211;BME280;50528;48.514;14.394;2022-12-24T00:11:59;93121.73;;;8.64;93.04
64211;BME280;50528;48.514;14.394;2022-12-24T00:12:33;93120.19;;;8.63;93.16
64211;BME280;50528;48.514;14.394;2022-12-24T00:13:06;93119.86;;;8.61;93.39
64211;BME280;50528;48.514;14.394;2022-12-24T00:13:39;93121.65;;;8.61;93.31
64211;BME280;50528;48.514;14.394;2022-12-24T00:14:13;93124.10;;;8.61;93.41
64211;BME280;50528;48.514;14.394;2022-12-24T00:14:46;93117.11;;;8.67;93.43
64211;BME280;50528;48.514;14.394;2022-12-24T00:15:19;93116.36;;;8.69;93.31
64211;BME280;50528;48.514;14.394;2022-12-24T00:15:53;93122.00;;;8.69;93.27
64211;BME280;50528;48.514;14.394;2022-12-24T00:16:26;93119.75;;;8.69;93.17
64211;BME280;50528;48.514;14.394;2022-12-24T00:17:00;93119.90;;;8.68;93.36
64211;BME280;50528;48.514;14.394;2022-12-24T00:17:33;93126.59;;;8.72;93.32
64211;BME280;50528;48.514;14.394;2022-12-24T00:18:07;93123.05;;;8.75;93.11
64211;BME280;50528;48.514;14.394;2022-12-24T00:18:40;93124.27;;;8.80;93.01
64211;BME280;50528;48.514;14.394;2022-12-24T00:19:18;93122.77;;;8.75;93.03
64211;BME280;50528;48.514;14.394;2022-12-24T00:19:52;93123.70;;;8.70;93.02
64211;BME280;50528;48.514;14.394;2022-12-24T00:20:25;93123.27;;;8.69;93.35
64211;BME280;50528;48.514;14.394;2022-12-24T00:20:58;93126.30;;;8.69;93.41
64211;BME280;50528;48.514;14.394;2022-12-24T00:21:33;93123.69;;;8.70;93.59
64211;BME280;50528;48.514;14.394;2022-12-24T00:22:07;93128.31;;;8.73;93.68
64211;BME280;50528;48.514;14.394;2022-12-24T00:22:41;93128.20;;;8.73;93.64
64211;BME280;50528;48.514;14.394;2022-12-24T00:23:15;93130.31;;;8.73;93.48
64211;BME280;50528;48.514;14.394;2022-12-24T00:23:48;93130.13;;;8.77;93.50
64211;BME280;50528;48.514;14.394;2022-12-24T00:24:22;93127.00;;;8.77;93.35
64211;BME280;50528;48.514;14.394;2022-12-24T00:24:55;93126.94;;;8.76;93.61
64211;BME280;50528;48.514;14.394;2022-12-24T00:25:30;93127.63;;;8.78;93.59
64211;BME280;50528;48.514;14.394;2022-12-24T00:26:04;93119.91;;;8.77;93.56
64211;BME280;50528;48.514;14.394;2022-12-24T00:26:37;93120.53;;;8.75;93.46
64211;BME280;50528;48.514;14.394;2022-12-24T00:27:11;93123.03;;;8.73;93.64
64211;BME280;50528;48.514;14.394;2022-12-24T00:27:45;93124.45;;;8.74;93.79
64211;BME280;50528;48.514;14.394;2022-12-24T00:28:18;93123.10;;;8.75;93.72
64211;BME280;50528;48.514;14.394;2022-12-24T00:28:51;93125.23;;;8.74;93.75
64211;BME280;50528;48.514;14.394;2022-12-24T00:29:25;93126.23;;;8.74;93.96
64211;BME280;50528;48.514;14.394;2022-12-24T00:29:58;93126.25;;;8.76;93.94
64211;BME280;50528;48.514;14.394;2022-12-24T00:30:32;93127.52;;;8.80;93.67
64211;BME280;50528;48.514;14.394;2022-12-24T00:31:13;93131.65;;;8.79;93.67
64211;BME280;50528;48.514;14.394;2022-12-24T00:31:47;93128.28;;;8.76;93.74
64211;BME280;50528;48.514;14.394;2022-12-24T00:32:21;93131.95;;;8.75;93.80
64211;BME280;50528;48.514;14.394;2022-12-24T00:32:54;93130.91;;;8.76;93.82
64211;BME280;50528;48.514;14.394;2022-12-24T00:33:27;93132.11;;;8.75;94.04
64211;BME280;50528;48.514;14.394;2022-12-24T00:34:01;93128.80;;;8.78;94.07
64211;BME280;50528;48.514;14.394;2022-12-24T00:34:38;93136.41;;;8.77;93.87
64211;BME280;50528;48.514;14.394;2022-12-24T00:35:11;93138.95;;;8.80;94.00
64211;BME280;50528;48.514;14.394;2022-12-24T00:35:49;93136.80;;;8.88;93.64
64211;BME280;50528;48.514;14.394;2022-12-24T00:36:23;93136.11;;;8.87;93.81
64211;BME280;50528;48.514;14.394;2022-12-24T00:36:56;93134.36;;;8.93;93.54
64211;BME280;50528;48.514;14.394;2022-12-24T00:37:30;93139.25;;;8.93;93.37
64211;BME280;50528;48.514;14.394;2022-12-24T00:38:04;93144.73;;;8.86;93.51
64211;BME280;50528;48.514;14.394;2022-12-24T00:38:37;93148.64;;;8.87;93.67
64211;BME280;50528;48.514;14.394;2022-12-24T00:39:11;93145.62;;;8.84;93.73
64211;BME280;50528;48.514;14.394;2022-12-24T00:39:44;93144.84;;;8.84;93.90
64211;BME280;50528;48.514;14.394;2022-12-24T00:40:18;93138.82;;;8.84;93.82
64211;BME280;50528;48.514;14.394;2022-12-24T00:40:59;93141.83;;;8.80;93.98
64211;BME280;50528;48.514;14.394;2022-12-24T00:41:34;93136.64;;;8.78;94.15
64211;BME280;50528;48.514;14.394;2022-12-24T00:42:07;93138.58;;;8.79;94.19
64211;BME280;50528;48.514;14.394;2022-12-24T00:42:40;93135.98;;;8.84;94.25
64211;BME280;50528;48.514;14.394;2022-12-24T00:43:14;93134.62;;;8.91;94.05
64211;BME280;50528;48.514;14.394;2022-12-24T00:43:47;93136.59;;;9.06;93.61
64211;BME280;50528;48.514;14.394;2022-12-24T00:44:21;93136.22;;;8.97;93.31
64211;BME280;50528;48.514;14.394;2022-12-24T00:44:54;93134.14;;;8.89;93.70
64211;BME280;50528;48.514;14.394;2022-12-24T00:45:28;93131.05;;;8.85;93.88
64211;BME280;50528;48.514;14.394;2022-12-24T00:46:01;93135.41;;;8.83;94.06
64211;BME280;50528;48.514;14.394;2022-12-24T00:46:37;93140.02;;;8.84;94.40
64211;BME280;50528;48.514;14.394;2022-12-24T00:47:11;93138.90;;;8.87;94.26
64211;BME280;50528;48.514;14.394;2022-12-24T00:47:44;93137.35;;;8.84;94.25
64211;BME280;50528;48.514;14.394;2022-12-24T00:48:18;93132.80;;;8.86;94.44
64211;BME280;50528;48.514;14.394;2022-12-24T00:48:52;93131.48;;;8.83;94.37
64211;BME280;50528;48.514;14.394;2022-12-24T00:49:25;93138.99;;;8.86;94.40
64211;BME280;50528;48.514;14.394;2022-12-24T00:49:59;93135.30;;;8.86;94.38
64211;BME280;50528;48.514;14.394;2022-12-24T00:50:35;93140.23;;;8.83;94.50
64211;BME280;50528;48.514;14.394;2022-12-24T00:51:09;93137.45;;;8.90;94.63
64211;BME280;50528;48.514;14.394;2022-12-24T00:51:43;93143.32;;;8.92;94.22
64211;BME280;50528;48.514;14.394;2022-12-24T00:52:17;93138.54;;;8.89;94.34
64211;BME280;50528;48.514;14.394;2022-12-24T00:52:50;93139.83;;;8.86;94.33
64211;BME280;50528;48.514;14.394;2022-12-24T00:53:24;93143.16;;;8.90;94.64
64211;BME280;50528;48.514;14.394;2022-12-24T00:53:58;93145.56;;;8.96;94.23
64211;BME280;50528;48.514;14.394;2022-12-24T00:54:32;93149.01;;;8.96;94.17
64211;BME280;50528;48.514;14.394;2022-12-24T00:55:05;93151.18;;;8.91;94.33
64211;BME280;50528;48.514;14.394;2022-12-24T00:55:39;93153.79;;;8.88;94.68
64211;BME280;50528;48.514;14.394;2022-12-24T00:56:44;93159.70;;;8.97;94.66
64211;BME280;50528;48.514;14.394;2022-12-24T00:57:17;93152.20;;;8.97;94.59
64211;BME280;50528;48.514;14.394;2022-12-24T00:57:51;93157.13;;;8.93;94.61
64211;BME280;50528;48.514;14.394;2022-12-24T00:58:24;93161.37;;;8.93;94.82
64211;BME280;50528;48.514;14.394;2022-12-24T00:58:57;93166.21;;;8.98;94.70
64211;BME280;50528;48.514;14.394;2022-12-24T00:59:30;93162.07;;;8.98;94.67
64211;BME280;50528;48.514;14.394;2022-12-24T01:00:04;93157.94;;;8.99;94.62
64211;BME280;50528;48.514;14.394;2022-12-24T01:00:38;93159.55;;;9.06;94.50
64211;BME280;50528;48.514;14.394;2022-12-24T01:01:12;93151.66;;;9.00;94.29
64211;BME280;50528;48.514;14.394;2022-12-24T01:01:45;93155.33;;;9.00;94.48
64211;BME280;50528;48.514;14.394;2022-12-24T01:02:19;93154.77;;;9.05;94.47
64211;BME280;50528;48.514;14.394;2022-12-24T01:02:52;93157.65;;;9.05;94.13
64211;BME280;50528;48.514;14.394;2022-12-24T01:03:26;93158.10;;;8.99;94.35
64211;BME280;50528;48.514;14.394;2022-12-24T01:04:08;93154.91;;;9.02;94.42
64211;BME280;50528;48.514;14.394;2022-12-24T01:05:00;93164.63;;;8.97;94.54
64211;BME280;50528;48.514;14.394;2022-12-24T01:05:43;93156.98;;;9.04;94.30
64211;BME280;50528;48.514;14.394;2022-12-24T01:06:19;93167.58;;;9.15;93.52
64211;BME280;50528;48.514;14.394;2022-12-24T01:06:53;93172.70;;;9.14;93.30
64211;BME280;50528;48.514;14.394;2022-12-24T01:07:26;93166.90;;;9.09;93.45
64211;BME280;50528;48.514;14.394;2022-12-24T01:07:59;93169.84;;;9.07;93.87
64211;BME280;50528;48.514;14.394;2022-12-24T01:08:37;93175.11;;;9.05;93.71
64211;BME280;50528;48.514;14.394;2022-12-24T01:09:23;93170.87;;;8.97;94.14
64211;BME280;50528;48.514;14.394;2022-12-24T01:09:56;93175.29;;;8.98;94.19
64211;BME280;50528;48.514;14.394;2022-12-24T01:10:34;93174.27;;;8.97;94.55
64211;BME280;50528;48.514;14.394;2022-12-24T01:11:09;93176.63;;;8.97;94.60
64211;BME280;50528;48.514;14.394;2022-12-24T01:11:42;93184.55;;;8.97;94.52
64211;BME280;50528;48.514;14.394;2022-12-24T01:12:23;93179.09;;;8.94;94.62
64211;BME280;50528;48.514;14.394;2022-12-24T01:13:05;93181.46;;;8.98;94.85
64211;BME280;50528;48.514;14.394;2022-12-24T01:13:38;93187.78;;;9.10;94.12
64211;BME280;50528;48.514;14.394;2022-12-24T01:14:11;93181.08;;;9.10;93.93
64211;BME280;50528;48.514;14.394;2022-12-24T01:14:45;93175.48;;;9.04;94.15
64211;BME280;50528;48.514;14.394;2022-12-24T01:15:19;93181.48;;;9.00;94.42
64211;BME280;50528;48.514;14.394;2022-12-24T01:15:52;93179.48;;;8.99;94.58
64211;BME280;50528;48.514;14.394;2022-12-24T01:16:25;93174.10;;;9.00;94.45
64211;BME280;50528;48.514;14.394;2022-12-24T01:16:59;93183.34;;;9.04;94.65
64211;BME280;50528;48.514;14.394;2022-12-24T01:17:32;93180.10;;;9.05;94.34
64211;BME280;50528;48.514;14.394;2022-12-24T01:18:06;93180.82;;;9.04;94.58
64211;BME280;50528;48.514;14.394;2022-12-24T01:19:03;93185.01;;;9.02;94.36
64211;BME280;50528;48.514;14.394;2022-12-24T01:20:45;93184.82;;;8.89;94.34
64211;BME280;50528;48.514;14.394;2022-12-24T01:21:19;93173.96;;;8.98;94.21
64211;BME280;50528;48.514;14.394;2022-12-24T01:21:52;93190.00;;;8.98;94.25
64211;BME280;50528;48.514;14.394;2022-12-24T01:22:25;93180.81;;;9.04;94.10
64211;BME280;50528;48.514;14.394;2022-12-24T01:22:59;93190.31;;;9.04;93.99
64211;BME280;50528;48.514;14.394;2022-12-24T01:23:32;93185.31;;;9.00;94.09
64211;BME280;50528;48.514;14.394;2022-12-24T01:24:05;93186.84;;;9.01;94.12
64211;BME280;50528;48.514;14.394;2022-12-24T01:24:41;93189.25;;;9.03;94.03
64211;BME280;50528;48.514;14.394;2022-12-24T01:25:15;93188.22;;;9.03;93.45
64211;BME280;50528;48.514;14.394;2022-12-24T01:26:24;93184.71;;;8.98;93.44
64211;BME280;50528;48.514;14.394;2022-12-24T01:26:58;93187.91;;;8.98;93.85
64211;BME280;50528;48.514;14.394;2022-12-24T01:27:31;93186.45;;;8.98;93.91
64211;BME280;50528;48.514;14.394;2022-12-24T01:28:05;93186.33;;;9.03;93.84
64211;BME280;50528;48.514;14.394;2022-12-24T01:28:39;93186.61;;;9.09;93.57
64211;BME280;50528;48.514;14.394;2022-12-24T01:29:16;93194.50;;;9.12;93.23
64211;BME280;50528;48.514;14.394;2022-12-24T01:29:54;93190.36;;;9.12;93.17
64211;BME280;50528;48.514;14.394;2022-12-24T01:30:39;93189.40;;;9.09;93.02
64211;BME280;50528;48.514;14.394;2022-12-24T01:34:54;93198.38;;;8.90;93.90
64211;BME280;50528;48.514;14.394;2022-12-24T01:36:06;93202.89;;;8.89;93.70
64211;BME280;50528;48.514;14.394;2022-12-24T01:36:40;93205.41;;;8.89;93.93
64211;BME280;50528;48.514;14.394;2022-12-24T01:37:16;93211.95;;;8.93;93.81
64211;BME280;50528;48.514;14.394;2022-12-24T01:37:56;93211.90;;;8.94;93.73
64211;BME280;50528;48.514;14.394;2022-12-24T01:38:30;93205.69;;;8.92;93.87
64211;BME280;50528;48.514;14.394;2022-12-24T01:39:03;93202.33;;;8.90;93.87
64211;BME280;50528;48.514;14.394;2022-12-24T01:39:37;93210.85;;;8.97;93.93
64211;BME280;50528;48.514;14.394;2022-12-24T01:40:15;93207.54;;;9.02;93.65
64211;BME280;50528;48.514;14.394;2022-12-24T01:41:18;93213.89;;;8.94;93.70
64211;BME280;50528;48.514;14.394;2022-12-24T01:42:22;93213.06;;;8.90;93.66
64211;BME280;50528;48.514;14.394;2022-12-24T01:43:16;93211.96;;;8.91;93.58
64211;BME280;50528;48.514;14.394;2022-12-24T01:43:56;93209.99;;;8.93;93.33
64211;BME280;50528;48.514;14.394;2022-12-24T01:44:34;93208.69;;;8.92;93.44
64211;BME280;50528;48.514;14.394;2022-12-24T01:45:38;93206.46;;;8.91;93.57
64211;BME280;50528;48.514;14.394;2022-12-24T01:46:19;93216.30;;;8.95;93.25
64211;BME280;50528;48.514;14.394;2022-12-24T01:47:35;93217.53;;;9.06;92.89
64211;BME280;50528;48.514;14.394;2022-12-24T01:48:24;93218.48;;;9.05;92.62
64211;BME280;50528;48.514;14.394;2022-12-24T01:49:03;93218.55;;;9.00;92.89
64211;BME280;50528;48.514;14.394;2022-12-24T01:49:41;93223.25;;;8.99;93.20
64211;BME280;50528;48.514;14.394;2022-12-24T01:51:43;93221.56;;;8.91;93.40
64211;BME280;50528;48.514;14.394;2022-12-24T01:52:22;93223.33;;;8.88;93.61
64211;BME280;50528;48.514;14.394;2022-12-24T01:52:57;93228.00;;;8.90;93.67
64211;BME280;50528;48.514;14.394;2022-12-24T01:53:36;93224.92;;;8.92;93.79
64211;BME280;50528;48.514;14.394;2022-12-24T01:54:33;93226.43;;;8.91;93.64
64211;BME280;50528;48.514;14.394;2022-12-24T01:55:12;93221.11;;;8.93;93.38
64211;BME280;50528;48.514;14.394;2022-12-24T01:55:53;93220.93;;;8.89;93.47
64211;BME280;50528;48.514;14.394;2022-12-24T01:56:36;93222.34;;;8.90;93.62
64211;BME280;50528;48.514;14.394;2022-12-24T01:57:16;93215.99;;;8.88;93.74
64211;BME280;50528;48.514;14.394;2022-12-24T01:57:55;93217.76;;;8.87;93.79
64211;BME280;50528;48.514;14.394;2022-12-24T01:58:33;93223.81;;;8.90;93.85
64211;BME280;50528;48.514;14.394;2022-12-24T01:59:14;93223.23;;;8.91;93.48
64211;BME280;50528;48.514;14.394;2022-12-24T01:59:53;93216.27;;;8.90;93.71
64211;BME280;50528;48.514;14.394;2022-12-24T02:01:43;93219.11;;;8.79;94.16
64211;BME280;50528;48.514;14.394;2022-12-24T02:02:26;93224.76;;;8.82;94.22
64211;BME280;50528;48.514;14.394;2022-12-24T02:03:01;93223.48;;;8.88;93.99
64211;BME280;50528;48.514;14.394;2022-12-24T02:03:41;93214.87;;;8.86;93.80
64211;BME280;50528;48.514;14.394;2022-12-24T02:05:31;93215.95;;;8.84;94.32
64211;BME280;50528;48.514;14.394;2022-12-24T02:06:07;93212.46;;;8.85;94.30
64211;BME280;50528;48.514;14.394;2022-12-24T02:06:42;93202.27;;;8.87;94.21
64211;BME280;50528;48.514;14.394;2022-12-24T02:07:16;93195.49;;;8.87;94.21
64211;BME280;50528;48.514;14.394;2022-12-24T02:07:50;93195.48;;;8.86;94.20
64211;BME280;50528;48.514;14.394;2022-12-24T02:08:23;93196.42;;;8.93;94.17
64211;BME280;50528;48.514;14.394;2022-12-24T02:09:22;93201.17;;;8.91;94.00
64211;BME280;50528;48.514;14.394;2022-12-24T02:11:20;93217.34;;;8.80;94.45
64211;BME280;50528;48.514;14.394;2022-12-24T02:11:57;93216.05;;;8.82;94.56
64211;BME280;50528;48.514;14.394;2022-12-24T02:12:34;93225.89;;;8.87;94.61
64211;BME280;50528;48.514;14.394;2022-12-24T02:13:08;93223.13;;;8.90;94.10
64211;BME280;50528;48.514;14.394;2022-12-24T02:13:45;93224.86;;;8.98;93.78
64211;BME280;50528;48.514;14.394;2022-12-24T02:14:21;93225.39;;;9.06;93.13
64211;BME280;50528;48.514;14.394;2022-12-24T02:15:06;93227.55;;;8.99;93.32
64211;BME280;50528;48.514;14.394;2022-12-24T02:15:57;93225.00;;;8.96;93.45
64211;BME280;50528;48.514;14.394;2022-12-24T02:18:32;93236.17;;;8.83;94.17
64211;BME280;50528;48.514;14.394;2022-12-24T02:19:26;93241.70;;;8.92;93.10
64211;BME280;50528;48.514;14.394;2022-12-24T02:20:53;93200.34;;;8.84;92.48
64211;BME280;50528;48.514;14.394;2022-12-24T02:25:01;93276.69;;;8.77;88.39
64211;BME280;50528;48.514;14.394;2022-12-24T02:30:47;93269.02;;;8.40;88.65
64211;BME280;50528;48.514;14.394;2022-12-24T02:32:24;93262.52;;;8.30;88.87
64211;BME280;50528;48.514;14.394;2022-12-24T02:34:06;93273.69;;;8.29;88.82
64211;BME280;50528;48.514;14.394;2022-12-24T02:34:57;93262.38;;;8.28;88.41
64211;BME280;50528;48.514;14.394;2022-12-24T02:36:57;93266.44;;;8.30;85.52
64211;BME280;50528;48.514;14.394;2022-12-24T02:37:38;93262.48;;;8.29;85.33
64211;BME280;50528;48.514;14.394;2022-12-24T02:38:21;93264.66;;;8.30;85.04
64211;BME280;50528;48.514;14.394;2022-12-24T02:39:04;93268.20;;;8.25;85.65
64211;BME280;50528;48.514;14.394;2022-12-24T02:40:00;93266.95;;;8.18;85.78
64211;BME280;50528;48.514;14.394;2022-12-24T02:41:02;93263.27;;;8.16;85.83
64211;BME280;50528;48.514;14.394;2022-12-24T02:41:42;93258.25;;;8.05;86.37
64211;BME280;50528;48.514;14.394;2022-12-24T02:42:40;93260.55;;;8.05;85.58
64211;BME280;50528;48.514;14.394;2022-12-24T02:43:21;93256.84;;;8.01;86.13
64211;BME280;50528;48.514;14.394;2022-12-24T02:43:56;93259.41;;;7.92;86.81
64211;BME280;50528;48.514;14.394;2022-12-24T02:44:38;93257.03;;;7.96;87.23
64211;BME280;50528;48.514;14.394;2022-12-24T02:45:16;93247.81;;;7.99;87.08
64211;BME280;50528;48.514;14.394;2022-12-24T02:45:57;93255.27;;;8.01;86.69
64211;BME280;50528;48.514;14.394;2022-12-24T02:46:34;93252.70;;;7.95;86.90
64211;BME280;50528;48.514;14.394;2022-12-24T02:47:09;93250.52;;;7.93;87.11
64211;BME280;50528;48.514;14.394;2022-12-24T02:47:59;93248.84;;;7.84;87.31
64211;BME280;50528;48.514;14.394;2022-12-24T02:48:33;93256.85;;;7.88;87.18
64211;BME280;50528;48.514;14.394;2022-12-24T03:02:51;93245.95;;;7.97;85.58
64211;BME280;50528;48.514;14.394;2022-12-24T03:03:46;93246.99;;;7.87;85.64
64211;BME280;50528;48.514;14.394;2022-12-24T03:05:25;93244.73;;;7.76;85.39
64211;BME280;50528;48.514;14.394;2022-12-24T03:06:59;93250.11;;;7.67;86.01
64211;BME280;50528;48.514;14.394;2022-12-24T03:07:45;93248.35;;;7.69;86.19
64211;BME280;50528;48.514;14.394;2022-12-24T03:09:36;93262.41;;;7.68;86.13
64211;BME280;50528;48.514;14.394;2022-12-24T03:10:25;93265.73;;;7.65;86.21
64211;BME280;50528;48.514;14.394;2022-12-24T03:11:08;93252.71;;;7.70;85.90
64211;BME280;50528;48.514;14.394;2022-12-24T03:11:47;93250.98;;;7.67;86.05
64211;BME280;50528;48.514;14.394;2022-12-24T03:12:42;93257.90;;;7.66;86.04
64211;BME280;50528;48.514;14.394;2022-12-24T03:13:16;93253.79;;;7.64;86.04
64211;BME280;50528;48.514;14.394;2022-12-24T03:13:50;93256.47;;;7.62;86.40
64211;BME280;50528;48.514;14.394;2022-12-24T03:14:26;93254.73;;;7.61;86.56
64211;BME280;50528;48.514;14.394;2022-12-24T03:15:00;93260.83;;;7.67;86.48
64211;BME280;50528;48.514;14.394;2022-12-24T03:15:33;93259.39;;;7.68;86.15
64211;BME280;50528;48.514;14.394;2022-12-24T03:16:11;93260.38;;;7.72;86.04
64211;BME280;50528;48.514;14.394;2022-12-24T03:16:46;93259.61;;;7.70;86.04
64211;BME280;50528;48.514;14.394;2022-12-24T03:17:18;93257.95;;;7.70;86.24
64211;BME280;50528;48.514;14.394;2022-12-24T03:17:55;93257.17;;;7.76;86.07
64211;BME280;50528;48.514;14.394;2022-12-24T03:18:29;93258.39;;;7.76;85.61
64211;BME280;50528;48.514;14.394;2022-12-24T03:19:02;93272.32;;;7.73;85.95
64211;BME280;50528;48.514;14.394;2022-12-24T03:19:34;93267.95;;;7.76;85.45
64211;BME280;50528;48.514;14.394;2022-12-24T03:20:08;93263.60;;;7.71;85.70
64211;BME280;50528;48.514;14.394;2022-12-24T03:20:45;93269.93;;;7.71;86.03
64211;BME280;50528;48.514;14.394;2022-12-24T03:21:34;93268.73;;;7.68;85.92
64211;BME280;50528;48.514;14.394;2022-12-24T03:22:09;93272.46;;;7.65;86.18
64211;BME280;50528;48.514;14.394;2022-12-24T03:22:41;93275.26;;;7.66;86.31
64211;BME280;50528;48.514;14.394;2022-12-24T03:23:39;93271.11;;;7.65;86.48
64211;BME280;50528;48.514;14.394;2022-12-24T03:24:11;93275.71;;;7.64;86.69
64211;BME280;50528;48.514;14.394;2022-12-24T03:24:43;93273.70;;;7.72;86.61
64211;BME280;50528;48.514;14.394;2022-12-24T03:25:16;93265.11;;;7.75;86.41
64211;BME280;50528;48.514;14.394;2022-12-24T03:25:49;93272.77;;;7.81;86.27
64211;BME280;50528;48.514;14.394;2022-12-24T03:26:22;93268.02;;;7.76;86.15
64211;BME280;50528;48.514;14.394;2022-12-24T03:26:56;93265.45;;;7.76;86.15
64211;BME280;50528;48.514;14.394;2022-12-24T03:27:30;93266.21;;;7.75;86.33
64211;BME280;50528;48.514;14.394;2022-12-24T03:28:09;93267.41;;;7.74;86.34
64211;BME280;50528;48.514;14.394;2022-12-24T03:29:06;93256.35;;;7.64;86.77
64211;BME280;50528;48.514;14.394;2022-12-24T03:32:41;93257.77;;;7.53;87.34
64211;BME280;50528;48.514;14.394;2022-12-24T03:33:13;93254.13;;;7.58;87.22
64211;BME280;50528;48.514;14.394;2022-12-24T03:33:46;93248.68;;;7.58;87.34
64211;BME280;50528;48.514;14.394;2022-12-24T03:34:21;93251.59;;;7.64;87.37
64211;BME280;50528;48.514;14.394;2022-12-24T03:34:53;93253.05;;;7.63;87.27
64211;BME280;50528;48.514;14.394;2022-12-24T03:35:25;93257.23;;;7.63;87.46
64211;BME280;50528;48.514;14.394;2022-12-24T03:35:57;93268.58;;;7.63;87.50
64211;BME280;50528;48.514;14.394;2022-12-24T03:36:39;93261.67;;;7.64;87.48
64211;BME280;50528;48.514;14.394;2022-12-24T03:37:17;93270.52;;;7.68;87.46
64211;BME280;50528;48.514;14.394;2022-12-24T03:37:49;93267.81;;;7.73;86.98
64211;BME280;50528;48.514;14.394;2022-12-24T03:42:31;93280.02;;;7.45;88.37
64211;BME280;50528;48.514;14.394;2022-12-24T03:43:03;93284.10;;;7.58;88.04
64211;BME280;50528;48.514;14.394;2022-12-24T03:43:35;93295.20;;;7.60;88.17
64211;BME280;50528;48.514;14.394;2022-12-24T03:44:08;93297.88;;;7.63;88.01
64211;BME280;50528;48.514;14.394;2022-12-24T03:44:40;93311.16;;;7.64;87.84
64211;BME280;50528;48.514;14.394;2022-12-24T03:45:12;93304.43;;;7.69;87.60
64211;BME280;50528;48.514;14.394;2022-12-24T03:45:44;93304.16;;;7.72;87.52
64211;BME280;50528;48.514;14.394;2022-12-24T03:49:37;93316.00;;;7.48;88.52
64211;BME280;50528;48.514;14.394;2022-12-24T03:50:25;93319.86;;;7.46;88.59
64211;BME280;50528;48.514;14.394;2022-12-24T03:51:04;93323.55;;;7.46;88.88
64211;BME280;50528;48.514;14.394;2022-12-24T03:51:39;93319.88;;;7.48;88.81
64211;BME280;50528;48.514;14.394;2022-12-24T03:52:11;93324.53;;;7.55;89.00
64211;BME280;50528;48.514;14.394;2022-12-24T03:52:43;93336.56;;;7.63;88.52
64211;BME280;50528;48.514;14.394;2022-12-24T03:53:15;93333.66;;;7.64;88.55
64211;BME280;50528;48.514;14.394;2022-12-24T03:53:47;93331.83;;;7.61;88.70
64211;BME280;50528;48.514;14.394;2022-12-24T03:54:23;93339.95;;;7.62;88.90
64211;BME280;50528;48.514;14.394;2022-12-24T03:55:38;93328.81;;;7.54;89.36
64211;BME280;50528;48.514;14.394;2022-12-24T03:56:47;93342.70;;;7.60;89.41
64211;BME280;50528;48.514;14.394;2022-12-24T03:57:48;93328.49;;;7.50;89.37
64211;BME280;50528;48.514;14.394;2022-12-24T03:58:33;93332.48;;;7.58;89.58
64211;BME280;50528;48.514;14.394;2022-12-24T03:59:19;93339.42;;;7.57;89.65
64211;BME280;50528;48.514;14.394;2022-12-24T03:59:52;93334.66;;;7.61;89.75
64211;BME280;50528;48.514;14.394;2022-12-24T04:00:24;93338.69;;;7.62;89.82
64211;BME280;50528;48.514;14.394;2022-12-24T04:00:56;93335.10;;;7.63;89.85
64211;BME280;50528;48.514;14.394;2022-12-24T04:01:28;93339.75;;;7.70;89.85
64211;BME280;50528;48.514;14.394;2022-12-24T04:02:03;93345.27;;;7.75;89.56
64211;BME280;50528;48.514;14.394;2022-12-24T04:03:08;93357.02;;;7.70;89.71
64211;BME280;50528;48.514;14.394;2022-12-24T04:04:38;93348.17;;;7.66;89.50
64211;BME280;50528;48.514;14.394;2022-12-24T04:05:22;93358.98;;;7.70;88.98
64211;BME280;50528;48.514;14.394;2022-12-24T04:07:31;93374.96;;;7.77;88.35
64211;BME280;50528;48.514;14.394;2022-12-24T04:08:03;93381.34;;;7.77;88.21
64211;BME280;50528;48.514;14.394;2022-12-24T04:08:39;93377.39;;;7.75;88.26
64211;BME280;50528;48.514;14.394;2022-12-24T04:09:11;93390.31;;;7.72;88.55
64211;BME280;50528;48.514;14.394;2022-12-24T04:09:43;93383.04;;;7.78;88.02
64211;BME280;50528;48.514;14.394;2022-12-24T04:10:16;93373.05;;;7.76;87.99
64211;BME280;50528;48.514;14.394;2022-12-24T04:11:06;93382.70;;;7.82;87.86
64211;BME280;50528;48.514;14.394;2022-12-24T04:11:59;93387.50;;;7.70;88.45
64211;BME280;50528;48.514;14.394;2022-12-24T04:12:34;93380.98;;;7.69;88.39
64211;BME280;50528;48.514;14.394;2022-12-24T04:13:06;93365.60;;;7.67;88.33
64211;BME280;50528;48.514;14.394;2022-12-24T04:13:39;93380.05;;;7.64;88.53
64211;BME280;50528;48.514;14.394;2022-12-24T04:14:11;93377.15;;;7.66;88.64